Time;durP1;ratioP1;P1;durP2;ratioP2;P2;SDS_P1;SDS_P2;PMS_P1;PMS_P2;Temp;Humidity;BMP_temperature;BMP_pressure;BME280_temperature;BME280_humidity;BME280_pressure;Samples;Min_cycle;Max_cycle;Signal;HPM_P1;HPM_P2
2022/05/22 00:02:20;;;;;;;2.53;1.90;;;;;;;8.57;100.00;100941.34;4962528;28;20055;-78
2022/05/22 00:04:47;;;;;;;3.45;1.98;;;;;;;8.58;100.00;100945.75;4946687;28;20130;-79
2022/05/22 00:07:14;;;;;;;4.43;2.30;;;;;;;8.54;100.00;100937.88;4931698;29;20041;-80
2022/05/22 00:09:41;;;;;;;3.93;2.37;;;;;;;8.65;100.00;100936.03;4966810;28;20049;-79
2022/05/22 00:12:09;;;;;;;3.13;2.00;;;;;;;8.55;100.00;100935.22;4947204;28;20047;-79
2022/05/22 00:14:37;;;;;;;4.90;2.43;;;;;;;8.56;100.00;100930.84;4948480;28;20436;-79
2022/05/22 00:17:06;;;;;;;2.50;2.10;;;;;;;8.53;100.00;100941.41;4963909;28;20039;-79
2022/05/22 00:19:34;;;;;;;4.13;2.25;;;;;;;8.45;100.00;100934.44;4947057;28;20039;-79
2022/05/22 00:22:02;;;;;;;2.72;2.10;;;;;;;8.40;100.00;100938.84;4962255;28;20049;-79
2022/05/22 00:24:30;;;;;;;5.38;2.08;;;;;;;8.35;100.00;100937.16;4944896;28;20045;-79
2022/05/22 00:26:58;;;;;;;3.28;1.98;;;;;;;8.31;100.00;100927.47;4945972;28;20043;-79
2022/05/22 00:29:25;;;;;;;4.00;2.33;;;;;;;8.29;100.00;100932.75;4930789;28;20051;-79
2022/05/22 00:31:52;;;;;;;2.63;2.13;;;;;;;8.27;100.00;100931.03;4965481;28;20761;-78
2022/05/22 00:34:19;;;;;;;5.93;2.40;;;;;;;8.29;100.00;100927.50;4962190;28;20043;-79
2022/05/22 00:36:46;;;;;;;3.95;2.65;;;;;;;8.36;100.00;100921.34;4937163;28;20047;-79
2022/05/22 00:39:13;;;;;;;6.03;2.20;;;;;;;8.43;100.00;100923.03;4963653;28;20040;-79
2022/05/22 00:41:41;;;;;;;4.95;2.92;;;;;;;8.49;100.00;100926.50;4963641;28;20047;-79
2022/05/22 00:44:08;;;;;;;9.10;3.20;;;;;;;8.56;100.00;100925.56;4944574;28;20039;-79
2022/05/22 00:46:36;;;;;;;5.78;2.90;;;;;;;8.62;100.00;100917.63;4949136;29;20049;-78
2022/05/22 00:49:10;;;;;;;5.37;2.53;;;;;;;8.65;100.00;100925.50;4964352;28;20049;-78
2022/05/22 00:51:47;;;;;;;2.95;2.00;;;;;;;8.68;100.00;100926.38;4946181;28;20057;-79
2022/05/22 00:54:18;;;;;;;5.55;2.30;;;;;;;8.72;100.00;100922.78;4949179;28;20046;-79
2022/05/22 00:57:05;;;;;;;4.22;2.38;;;;;;;8.74;100.00;100918.41;4968597;28;20055;-79
2022/05/22 00:59:37;;;;;;;7.38;2.63;;;;;;;8.80;100.00;100914.81;4966840;28;20069;-79
2022/05/22 01:02:05;;;;;;;2.97;2.22;;;;;;;8.81;100.00;100915.69;4964511;28;20039;-79
2022/05/22 01:04:34;;;;;;;5.03;2.10;;;;;;;8.80;100.00;100912.19;4967784;28;20037;-79
2022/05/22 01:07:04;;;;;;;3.22;1.98;;;;;;;8.79;100.00;100910.44;4951892;29;20524;-78
2022/05/22 01:09:31;;;;;;;5.97;2.47;;;;;;;8.81;100.00;100916.56;4963325;28;20045;-79
2022/05/22 01:12:04;;;;;;;6.55;2.55;;;;;;;8.80;100.00;100914.81;4952828;28;20055;-79
2022/05/22 01:14:33;;;;;;;4.68;2.40;;;;;;;8.77;100.00;100920.13;4951028;28;20499;-79
2022/05/22 01:17:05;;;;;;;3.50;2.03;;;;;;;8.79;100.00;100910.44;4958172;28;20047;-79
2022/05/22 01:19:32;;;;;;;4.70;2.25;;;;;;;8.74;100.00;100909.59;4942809;29;20525;-79
2022/05/22 01:22:12;;;;;;;5.45;2.42;;;;;;;8.71;100.00;100917.56;4948667;29;20045;-79
2022/05/22 01:24:40;;;;;;;4.63;2.65;;;;;;;8.66;100.00;100917.59;4950331;28;20039;-79
2022/05/22 01:27:14;;;;;;;6.40;2.60;;;;;;;8.62;100.00;100915.88;4945955;28;20675;-79
2022/05/22 01:29:41;;;;;;;3.35;2.20;;;;;;;8.60;100.00;100922.03;4963544;28;20040;-79
2022/05/22 01:32:08;;;;;;;4.22;2.55;;;;;;;8.54;100.00;100919.44;4944774;29;20036;-79
2022/05/22 01:34:35;;;;;;;5.63;2.97;;;;;;;8.45;100.00;100921.28;4957392;28;20038;-79
2022/05/22 01:37:02;;;;;;;3.87;2.43;;;;;;;8.45;100.00;100928.28;4953374;28;20057;-77
2022/05/22 01:39:32;;;;;;;6.03;2.60;;;;;;;8.38;100.00;100932.72;4963962;28;20075;-78
2022/05/22 01:41:59;;;;;;;4.05;2.42;;;;;;;8.32;100.00;100911.66;4965505;28;20039;-78
2022/05/22 01:44:26;;;;;;;4.45;2.10;;;;;;;8.23;100.00;100922.25;4949401;28;20485;-79
2022/05/22 01:46:53;;;;;;;3.53;2.20;;;;;;;8.17;100.00;100917.94;4969679;28;20311;-77
2022/05/22 01:49:22;;;;;;;5.68;2.35;;;;;;;8.16;100.00;100923.22;4950354;28;20027;-77
2022/05/22 01:51:49;;;;;;;7.57;2.43;;;;;;;8.09;100.00;100916.25;4948765;29;20440;-77
2022/05/22 01:54:18;;;;;;;4.23;2.33;;;;;;;8.07;100.00;100913.63;4946982;28;20039;-80
2022/05/22 01:56:45;;;;;;;7.93;2.83;;;;;;;8.07;100.00;100908.34;4950284;28;20039;-79
2022/05/22 01:59:15;;;;;;;5.60;3.45;;;;;;;8.06;100.00;100913.59;4951812;28;20036;-80
2022/05/22 02:01:47;;;;;;;4.43;2.93;;;;;;;8.01;100.00;100915.41;4964976;28;20404;-80
2022/05/22 02:04:14;;;;;;;3.37;2.07;;;;;;;7.89;100.00;100925.09;4964620;28;20047;-80
2022/05/22 02:09:30;;;;;;;5.67;2.97;;;;;;;7.78;100.00;100926.91;4960627;28;20037;-80
2022/05/22 02:11:57;;;;;;;3.90;2.60;;;;;;;7.77;100.00;100929.56;4957560;28;20043;-79
2022/05/22 02:14:24;;;;;;;3.80;2.80;;;;;;;7.88;100.00;100925.09;4956543;28;20043;-79
2022/05/22 02:16:51;;;;;;;3.33;2.83;;;;;;;7.97;100.00;100926.81;4949709;28;20055;-79
2022/05/22 02:19:18;;;;;;;5.20;2.90;;;;;;;8.06;100.00;100914.47;4959242;28;20300;-79
2022/05/22 02:21:45;;;;;;;5.33;2.40;;;;;;;8.10;100.00;100920.63;4944982;29;20039;-79
2022/05/22 02:24:12;;;;;;;5.37;2.90;;;;;;;8.14;100.00;100920.56;4963480;28;20051;-79
2022/05/22 02:26:39;;;;;;;5.13;3.13;;;;;;;8.19;100.00;100921.41;4949687;28;20043;-79
2022/05/22 02:29:06;;;;;;;5.57;3.03;;;;;;;8.22;100.00;100924.91;4965804;28;20047;-80
2022/05/22 02:31:33;;;;;;;8.55;3.40;;;;;;;8.29;100.00;100922.22;4950420;29;20035;-79
2022/05/22 02:34:00;;;;;;;6.07;3.20;;;;;;;8.35;100.00;100916.97;4965902;28;20039;-80
2022/05/22 02:36:27;;;;;;;5.53;3.20;;;;;;;8.38;100.00;100910.78;4975843;28;20050;-79
2022/05/22 02:38:54;;;;;;;6.88;3.60;;;;;;;8.39;100.00;100907.28;4946779;29;20046;-79
2022/05/22 02:41:21;;;;;;;3.83;2.47;;;;;;;8.36;100.00;100910.81;4958171;28;20047;-78
2022/05/22 02:43:48;;;;;;;5.82;3.28;;;;;;;8.34;100.00;100902.03;4949270;28;20039;-79
2022/05/22 02:46:17;;;;;;;3.42;2.53;;;;;;;8.32;100.00;100910.78;4967621;28;20043;-79
2022/05/22 02:48:44;;;;;;;6.07;2.67;;;;;;;8.28;100.00;100907.31;4972383;28;20409;-79
2022/05/22 02:51:13;;;;;;;5.32;2.63;;;;;;;8.26;100.00;100902.97;4968917;28;20659;-79
2022/05/22 02:53:40;;;;;;;3.97;2.38;;;;;;;8.20;100.00;100898.59;4968552;28;20035;-79
2022/05/22 02:56:16;;;;;;;4.15;2.60;;;;;;;8.16;100.00;100897.78;4924339;28;20043;-79
2022/05/22 02:58:43;;;;;;;4.57;3.00;;;;;;;8.15;100.00;100896.00;4950464;28;20043;-79
2022/05/22 03:01:10;;;;;;;6.40;3.33;;;;;;;8.13;100.00;100896.91;4944474;28;20526;-80
2022/05/22 03:03:37;;;;;;;6.30;2.77;;;;;;;8.08;100.00;100896.94;4931478;29;20053;-79
2022/05/22 03:08:50;;;;;;;5.17;2.73;;;;;;;8.02;100.00;100893.47;4954539;28;20821;-79
2022/05/22 03:11:17;;;;;;;6.97;2.50;;;;;;;7.98;100.00;100891.72;4964541;28;20035;-79
2022/05/22 03:13:44;;;;;;;4.27;2.83;;;;;;;7.94;100.00;100888.25;4952052;28;20046;-78
2022/05/22 03:16:12;;;;;;;4.20;2.43;;;;;;;7.89;100.00;100893.53;4951096;28;20035;-78
2022/05/22 03:18:39;;;;;;;4.55;2.70;;;;;;;7.83;100.00;100897.97;4951294;28;20039;-79
2022/05/22 03:21:06;;;;;;;6.20;2.93;;;;;;;7.82;100.00;100893.59;4938285;29;20493;-79
2022/05/22 03:23:33;;;;;;;7.37;2.80;;;;;;;7.85;100.00;100894.44;4958034;28;20039;-78
2022/05/22 03:25:59;;;;;;;3.55;2.90;;;;;;;7.89;100.00;100898.78;4968088;28;20040;-79
2022/05/22 03:28:26;;;;;;;6.20;3.10;;;;;;;7.93;100.00;100898.78;4965376;28;20035;-78
2022/05/22 03:30:53;;;;;;;5.55;3.33;;;;;;;8.03;100.00;100903.09;4971349;28;20046;-78
2022/05/22 03:33:21;;;;;;;5.50;3.15;;;;;;;8.06;100.00;100905.72;4976721;28;20035;-79
2022/05/22 03:35:48;;;;;;;5.03;3.40;;;;;;;8.00;100.00;100906.66;4966884;28;20035;-79
2022/05/22 03:38:14;;;;;;;5.97;2.57;;;;;;;7.97;100.00;100905.78;4951133;29;20050;-78
2022/05/22 03:40:46;;;;;;;7.38;3.30;;;;;;;7.97;100.00;100906.63;4960787;28;20034;-79
2022/05/22 03:43:17;;;;;;;7.40;3.37;;;;;;;7.98;100.00;100903.13;4952026;28;20054;-77
2022/05/22 03:45:44;;;;;;;5.53;3.00;;;;;;;8.00;100.00;100916.28;4952639;28;20118;-78
2022/05/22 03:48:12;;;;;;;8.77;3.70;;;;;;;8.03;100.00;100913.63;4950762;29;20727;-79
2022/05/22 03:50:39;;;;;;;7.22;3.55;;;;;;;8.04;100.00;100910.13;4971300;28;20389;-80
2022/05/22 03:53:06;;;;;;;7.47;3.37;;;;;;;8.06;100.00;100918.88;4949297;28;20437;-79
2022/05/22 03:55:33;;;;;;;9.23;4.23;;;;;;;8.10;100.00;100916.22;4947005;29;20400;-79
2022/05/22 03:58:00;;;;;;;7.13;4.38;;;;;;;8.18;100.00;100918.81;4969523;28;20035;-79
2022/05/22 04:00:28;;;;;;;7.38;3.63;;;;;;;8.19;100.00;100916.16;4968476;28;20061;-80
2022/05/22 04:02:54;;;;;;;5.70;3.40;;;;;;;8.17;100.00;100912.66;4952073;28;20045;-79
2022/05/22 04:05:22;;;;;;;5.93;4.07;;;;;;;8.18;100.00;100921.44;4966932;28;20045;-79
2022/05/22 04:07:49;;;;;;;10.77;3.50;;;;;;;8.27;100.00;100915.25;4970033;28;20389;-77
2022/05/22 04:10:17;;;;;;;8.23;3.43;;;;;;;8.30;100.00;100923.09;4968698;28;20039;-78
2022/05/22 04:12:44;;;;;;;8.70;4.03;;;;;;;8.36;100.00;100917.84;4948919;28;20586;-77
2022/05/22 04:15:16;;;;;;;8.30;3.70;;;;;;;8.38;100.00;100916.94;4978629;28;20032;-78
2022/05/22 04:17:43;;;;;;;5.57;3.28;;;;;;;8.42;100.00;100921.31;4936326;28;20066;-78
2022/05/22 04:20:10;;;;;;;10.95;4.60;;;;;;;8.52;100.00;100918.59;4951491;29;20042;-78
2022/05/22 04:25:11;;;;;;;6.95;3.35;;;;;;;8.55;100.00;100922.06;4937920;29;20047;-78
2022/05/22 04:25:24;;;;;;;11.07;4.20;;;;;;;8.54;100.00;100922.97;4972498;28;20047;-77
2022/05/22 04:27:51;;;;;;;6.90;3.80;;;;;;;8.53;100.00;100921.22;4955176;28;20454;-78
2022/05/22 04:30:19;;;;;;;5.53;3.30;;;;;;;8.57;100.00;100925.56;4968484;28;20039;-80
2022/05/22 04:32:51;;;;;;;6.65;4.18;;;;;;;8.60;100.00;100927.31;4955497;28;20043;-79
2022/05/22 04:35:19;;;;;;;6.40;3.55;;;;;;;8.59;100.00;100931.72;4974225;28;20042;-78
2022/05/22 04:37:47;;;;;;;13.40;4.57;;;;;;;8.69;100.00;100929.88;4945583;28;20032;-78
2022/05/22 04:40:14;;;;;;;7.30;3.77;;;;;;;8.70;100.00;100927.22;4970858;28;20040;-78
2022/05/22 04:42:41;;;;;;;5.55;3.42;;;;;;;8.68;100.00;100938.66;4957959;28;20047;-78
2022/05/22 04:45:09;;;;;;;8.27;3.42;;;;;;;8.68;100.00;100936.91;4955846;28;20126;-78
2022/05/22 04:47:41;;;;;;;7.38;3.92;;;;;;;8.77;100.00;100941.22;4958822;28;20039;-78
2022/05/22 04:50:10;;;;;;;8.13;4.78;;;;;;;8.90;100.00;100927.03;4956160;28;20041;-77
2022/05/22 04:52:37;;;;;;;5.40;3.17;;;;;;;9.01;100.00;100927.81;4951657;28;20049;-77
2022/05/22 04:55:05;;;;;;;11.52;4.47;;;;;;;9.25;100.00;100933.72;4961948;28;20050;-78
2022/05/22 04:57:32;;;;;;;5.85;3.50;;;;;;;9.33;100.00;100937.13;4953491;29;20472;-77
2022/05/22 05:00:00;;;;;;;7.90;3.33;;;;;;;9.53;100.00;100929.88;4967725;28;20039;-78
2022/05/22 05:02:27;;;;;;;6.65;3.72;;;;;;;9.68;100.00;100935.88;4959101;28;21109;-78
2022/05/22 05:04:55;;;;;;;6.85;3.25;;;;;;;9.85;100.00;100931.25;4964551;28;20043;-79
2022/05/22 05:07:22;;;;;;;6.45;3.78;;;;;;;10.02;100.00;100928.38;4968576;28;20051;-78
2022/05/22 05:09:50;;;;;;;10.35;4.75;;;;;;;10.19;100.00;100931.66;4950746;28;20050;-78
2022/05/22 05:12:17;;;;;;;6.30;3.35;;;;;;;10.23;100.00;100925.47;4968357;28;20503;-77
2022/05/22 05:14:46;;;;;;;4.88;3.40;;;;;;;10.27;100.00;100935.09;4952965;28;20046;-78
2022/05/22 05:17:15;;;;;;;5.63;3.28;;;;;;;10.40;100.00;100931.34;4968075;28;20047;-77
2022/05/22 05:19:42;;;;;;;6.53;3.53;;;;;;;10.51;100.00;100932.94;4947711;29;20045;-78
2022/05/22 05:22:09;;;;;;;7.72;3.42;;;;;;;10.60;100.00;100944.25;4963600;28;20036;-78
2022/05/22 05:24:36;;;;;;;4.55;2.83;;;;;;;10.70;100.00;100942.34;4947145;28;20069;-78
2022/05/22 05:27:03;;;;;;;5.07;2.83;;;;;;;11.00;100.00;100933.00;4959279;29;20489;-78
2022/05/22 05:29:50;;;;;;;5.57;3.03;;;;;;;11.14;100.00;100927.47;4959692;28;20695;-78
2022/05/22 05:32:18;;;;;;;7.35;3.35;;;;;;;11.17;100.00;100925.63;4971477;28;20031;-78
2022/05/22 05:34:46;;;;;;;8.88;4.40;;;;;;;11.15;100.00;100926.56;4970001;28;20042;-78
2022/05/22 05:37:13;;;;;;;6.03;3.33;;;;;;;11.20;100.00;100922.94;4959174;28;20199;-79
2022/05/22 05:39:40;;;;;;;5.60;2.97;;;;;;;11.28;100.00;100922.81;4971934;28;20823;-79
2022/05/22 05:42:07;;;;;;;7.60;3.60;;;;;;;11.45;100.00;100928.63;4954577;28;20066;-78
2022/05/22 05:44:34;;;;;;;6.78;2.90;;;;;;;11.67;100.00;100926.41;4953675;28;20035;-78
2022/05/22 05:47:01;;;;;;;8.80;3.00;;;;;;;11.81;100.00;100924.38;4974250;28;21704;-79
2022/05/22 05:49:29;;;;;;;5.55;3.00;;;;;;;11.95;100.00;100918.81;4980239;28;20035;-79
2022/05/22 05:51:56;;;;;;;6.32;3.08;;;;;;;12.23;100.00;100916.41;4962556;28;20118;-79
2022/05/22 05:54:37;;;;;;;9.23;3.40;;;;;;;12.52;100.00;100913.03;4965125;28;20046;-78
2022/05/22 05:57:04;;;;;;;5.95;3.05;;;;;;;12.58;100.00;100918.19;4960173;28;20134;-79
2022/05/22 05:59:33;;;;;;;6.70;3.08;;;;;;;13.04;100.00;100926.78;4968164;28;20069;-77
2022/05/22 06:02:00;;;;;;;7.30;3.33;;;;;;;13.63;95.90;100922.50;4951129;28;20054;-77
2022/05/22 06:04:27;;;;;;;7.07;3.13;;;;;;;13.75;94.02;100929.25;4948239;28;20053;-77
2022/05/22 06:06:55;;;;;;;5.80;2.92;;;;;;;13.92;94.18;100924.28;4966341;28;20050;-77
2022/05/22 06:09:21;;;;;;;9.30;3.05;;;;;;;13.89;95.64;100939.47;4958383;28;20535;-78
2022/05/22 06:11:48;;;;;;;7.63;4.50;;;;;;;13.45;93.98;100946.91;4959249;28;20130;-77
2022/05/22 06:14:16;;;;;;;4.72;2.92;;;;;;;13.19;95.89;100927.25;4968858;28;20039;-78
2022/05/22 06:16:43;;;;;;;6.82;3.20;;;;;;;13.16;100.00;100934.41;4955017;28;20043;-78
2022/05/22 06:19:10;;;;;;;6.38;3.75;;;;;;;12.97;99.30;100939.31;4948931;28;20053;-78
2022/05/22 06:21:37;;;;;;;7.72;3.50;;;;;;;12.90;100.00;100937.72;4966071;28;20058;-78
2022/05/22 06:24:05;;;;;;;5.55;3.28;;;;;;;12.86;100.00;100941.34;4948986;28;20043;-78
2022/05/22 06:26:32;;;;;;;9.20;3.50;;;;;;;12.90;100.00;100935.09;4958977;28;20039;-77
2022/05/22 06:28:59;;;;;;;9.52;3.65;;;;;;;12.83;100.00;100944.97;4944132;28;20039;-77
2022/05/22 06:31:26;;;;;;;4.88;2.67;;;;;;;12.81;100.00;100940.63;4946589;28;20053;-77
2022/05/22 06:33:53;;;;;;;4.85;2.78;;;;;;;12.70;100.00;100947.97;4944678;28;20066;-77
2022/05/22 06:36:22;;;;;;;7.40;3.95;;;;;;;12.59;99.99;100954.41;4954093;28;20041;-77
2022/05/22 06:41:38;;;;;;;5.47;3.08;;;;;;;12.69;100.00;100947.09;4954864;28;20047;-78
2022/05/22 06:44:05;;;;;;;6.30;2.85;;;;;;;12.75;100.00;100951.38;5009588;23;21191;-77
2022/05/22 06:46:33;;;;;;;8.57;3.97;;;;;;;12.71;100.00;100957.69;4993793;28;20535;-78
2022/05/22 06:49:01;;;;;;;9.15;3.00;;;;;;;12.58;100.00;100965.03;4994171;28;20042;-81
2022/05/22 06:51:28;;;;;;;8.00;3.83;;;;;;;12.55;100.00;100954.53;4993247;28;20034;-80
2022/05/22 06:53:55;;;;;;;5.00;2.90;;;;;;;12.63;100.00;100958.72;4989527;28;20039;-80
2022/05/22 06:56:22;;;;;;;5.85;3.28;;;;;;;12.73;100.00;100967.31;4991751;28;20050;-78
2022/05/22 06:58:49;;;;;;;4.93;3.00;;;;;;;12.94;97.47;100947.34;5003911;28;20046;-80
2022/05/22 07:01:17;;;;;;;7.55;3.33;;;;;;;13.08;97.32;100950.50;4986419;28;20606;-79
2022/05/22 07:03:44;;;;;;;6.38;3.67;;;;;;;13.13;98.78;100953.06;4969154;28;20046;-79
2022/05/22 07:06:11;;;;;;;4.70;2.58;;;;;;;13.13;97.65;100953.06;4989633;28;20503;-77
2022/05/22 07:08:38;;;;;;;7.25;3.97;;;;;;;13.41;100.00;100954.09;4990118;28;20046;-77
2022/05/22 07:13:50;;;;;;;4.60;3.05;;;;;;;13.85;89.61;100945.75;4991550;28;20040;-80
2022/05/22 07:16:17;;;;;;;6.70;2.92;;;;;;;13.80;90.95;100952.09;4992526;28;20043;-77
2022/05/22 07:18:50;;;;;;;7.53;3.13;;;;;;;13.83;93.33;100955.56;4988825;28;20043;-78
2022/05/22 07:21:17;;;;;;;7.07;2.83;;;;;;;13.70;93.08;100944.41;4992324;28;20088;-77
2022/05/22 07:23:44;;;;;;;4.97;3.40;;;;;;;13.69;96.58;100948.00;4983819;28;20076;-79
2022/05/22 07:26:12;;;;;;;6.70;2.90;;;;;;;13.72;93.88;100946.13;5006614;28;20036;-79
2022/05/22 07:28:39;;;;;;;5.82;3.03;;;;;;;13.84;95.30;100950.22;4986831;28;20675;-78
2022/05/22 07:31:15;;;;;;;6.55;2.80;;;;;;;13.91;90.36;100945.59;4989024;28;20037;-78
2022/05/22 07:33:42;;;;;;;4.53;3.38;;;;;;;13.91;90.22;100943.81;4986899;28;20035;-78
2022/05/22 07:36:09;;;;;;;6.88;3.00;;;;;;;13.97;91.67;100930.34;4970812;28;20042;-77
2022/05/22 07:38:36;;;;;;;7.47;2.63;;;;;;;13.97;88.13;100935.66;4986047;28;20038;-77
2022/05/22 07:41:03;;;;;;;12.18;3.17;;;;;;;13.82;89.14;100937.91;4982594;28;20046;-81
2022/05/22 07:43:30;;;;;;;8.25;3.05;;;;;;;13.70;89.96;100939.97;4985550;28;20040;-77
2022/05/22 07:45:57;;;;;;;4.95;3.05;;;;;;;13.62;92.88;100939.34;5002317;28;20037;-79
2022/05/22 07:48:24;;;;;;;4.43;3.20;;;;;;;13.66;92.08;100945.44;4979872;28;20039;-78
2022/05/22 07:50:56;;;;;;;7.35;3.10;;;;;;;13.65;89.61;100949.00;4986072;28;20038;-79
2022/05/22 07:53:24;;;;;;;5.63;3.20;;;;;;;13.45;90.59;100971.69;4986133;28;20574;-78
2022/05/22 07:55:51;;;;;;;7.18;3.55;;;;;;;13.46;92.00;100969.91;4987363;28;20495;-78
2022/05/22 07:58:19;;;;;;;9.85;3.55;;;;;;;13.53;92.75;100955.50;4968756;28;20042;-79
2022/05/22 08:00:46;;;;;;;9.98;3.58;;;;;;;13.42;90.26;100955.81;4981436;28;20396;-78
2022/05/22 08:03:15;;;;;;;8.65;3.30;;;;;;;13.43;93.28;100949.59;4981780;28;20043;-78
2022/05/22 08:05:42;;;;;;;7.82;3.20;;;;;;;13.44;91.66;100938.06;4989187;28;20034;-77
2022/05/22 08:08:10;;;;;;;8.50;3.10;;;;;;;13.65;93.05;100928.63;4987608;28;20038;-79
2022/05/22 08:10:38;;;;;;;3.72;2.60;;;;;;;14.09;92.76;100926.44;4978716;28;20051;-78
2022/05/22 08:13:07;;;;;;;6.47;3.03;;;;;;;14.36;88.95;100914.94;4984212;28;20058;-78
2022/05/22 08:15:35;;;;;;;4.03;3.05;;;;;;;14.89;90.41;100928.31;4986600;28;20036;-78
2022/05/22 08:18:03;;;;;;;5.25;3.10;;;;;;;15.29;85.12;100918.91;4985434;28;20048;-75
2022/05/22 08:20:33;;;;;;;7.68;3.22;;;;;;;15.59;83.43;100913.41;4977292;28;20042;-76
2022/05/22 08:23:06;;;;;;;3.60;2.60;;;;;;;15.84;82.16;100910.72;4982311;28;20057;-78
2022/05/22 08:25:32;;;;;;;7.00;3.72;;;;;;;16.19;80.53;100912.00;4984696;28;20034;-79
2022/05/22 08:28:04;;;;;;;7.30;2.70;;;;;;;15.92;76.52;100908.63;4988870;28;20513;-78
2022/05/22 08:30:32;;;;;;;7.40;2.72;;;;;;;16.01;77.55;100913.59;4981700;28;20401;-78
2022/05/22 08:33:00;;;;;;;4.00;2.30;;;;;;;16.23;76.88;100917.19;4988332;28;20500;-80
2022/05/22 08:35:32;;;;;;;6.63;2.63;;;;;;;16.27;72.94;100910.78;4985268;28;20049;-78
2022/05/22 08:38:00;;;;;;;4.40;3.05;;;;;;;16.30;73.12;100913.31;4988713;28;20042;-78
2022/05/22 08:40:36;;;;;;;3.28;2.78;;;;;;;16.09;74.35;100908.84;4985627;28;20030;-78
2022/05/22 08:43:05;;;;;;;5.75;2.78;;;;;;;16.09;76.16;100911.50;4968574;28;20040;-78
2022/05/22 08:45:42;;;;;;;5.00;2.50;;;;;;;15.95;74.94;100908.50;4981459;28;20026;-78
2022/05/22 08:48:16;;;;;;;5.63;2.33;;;;;;;15.97;71.82;100912.84;4987888;28;20038;-77
2022/05/22 08:50:45;;;;;;;3.28;2.60;;;;;;;15.82;75.28;100901.94;4988124;28;20046;-76
2022/05/22 08:53:22;;;;;;;5.95;2.65;;;;;;;16.29;75.60;100898.25;4971290;28;20065;-78
2022/05/22 08:59:01;;;;;;;4.82;2.35;;;;;;;17.72;66.93;100882.31;4979289;28;20030;-77
2022/05/22 09:01:49;;;;;;;3.63;1.88;;;;;;;17.96;63.13;100888.31;4977157;28;20054;-80
2022/05/22 09:04:30;;;;;;;5.25;1.77;;;;;;;18.52;63.27;100893.59;4982973;28;20050;-78
2022/05/22 09:07:07;;;;;;;4.80;1.73;;;;;;;18.44;58.30;100901.16;5000918;28;20069;-76
2022/05/22 09:09:37;;;;;;;3.90;1.60;;;;;;;18.17;58.27;100894.47;4984099;28;20049;-77
2022/05/22 09:12:16;;;;;;;3.55;1.95;;;;;;;17.68;59.57;100902.09;4985107;28;20299;-77
2022/05/22 09:15:07;;;;;;;2.00;1.30;;;;;;;17.36;61.22;100904.41;4969709;28;20049;-78
2022/05/22 09:17:40;;;;;;;4.15;1.95;;;;;;;17.11;62.37;100907.28;4974486;28;20065;-78
2022/05/22 09:20:13;;;;;;;4.82;2.03;;;;;;;17.00;64.45;100904.22;4983331;28;20044;-78
2022/05/22 09:23:38;;;;;;;3.67;1.85;;;;;;;16.97;65.20;100896.34;4984519;28;20046;-77
2022/05/22 09:26:11;;;;;;;6.15;2.65;;;;;;;16.85;65.48;100895.06;4947822;28;20069;-77
2022/05/22 09:28:59;;;;;;;6.07;2.00;;;;;;;16.73;64.78;100903.63;4971270;28;20468;-77
2022/05/22 09:31:45;;;;;;;2.13;1.60;;;;;;;16.44;67.31;100912.78;4987057;28;20038;-78
2022/05/22 09:34:34;;;;;;;3.42;2.00;;;;;;;16.35;66.15;100913.16;4985278;28;20136;-77
2022/05/22 09:37:10;;;;;;;4.35;2.03;;;;;;;16.35;66.76;100912.28;4990737;28;20038;-77
2022/05/22 09:39:56;;;;;;;3.47;2.13;;;;;;;16.29;68.26;100911.56;4989395;28;20047;-78
2022/05/22 09:42:36;;;;;;;3.20;2.30;;;;;;;16.16;69.41;100912.16;4967006;28;20048;-78
2022/05/22 09:45:19;;;;;;;2.92;1.60;;;;;;;16.12;69.13;100906.06;5000680;28;20046;-78
2022/05/22 09:48:02;;;;;;;4.13;2.03;;;;;;;15.92;69.52;100912.16;4983046;28;20037;-78
2022/05/22 09:50:53;;;;;;;4.47;2.03;;;;;;;15.83;71.47;100909.00;4985255;28;20039;-78
2022/05/22 09:53:39;;;;;;;4.28;2.00;;;;;;;15.49;71.74;100910.22;4995834;28;20499;-79
2022/05/22 09:56:15;;;;;;;2.80;1.80;;;;;;;15.73;74.00;100911.16;4981183;28;20035;-78
2022/05/22 09:58:54;;;;;;;3.78;1.80;;;;;;;16.04;71.10;100909.00;4988050;28;20042;-81
2022/05/22 10:01:28;;;;;;;3.15;1.60;;;;;;;16.35;71.34;100904.28;4984216;28;20034;-78
2022/05/22 10:04:06;;;;;;;2.40;1.40;;;;;;;16.52;66.16;100912.47;4972499;28;20054;-81
2022/05/22 10:06:46;;;;;;;5.25;2.10;;;;;;;16.85;66.86;100903.06;4984285;28;20048;-78
2022/05/22 10:09:40;;;;;;;4.55;2.00;;;;;;;17.19;64.96;100914.97;4986242;28;20042;-78
2022/05/22 10:12:10;;;;;;;;;;;;;;;17.13;62.96;100916.09;4959925;28;20069;-79
2022/05/22 10:15:12;;;;;;;3.83;1.73;;;;;;;16.72;62.57;100917.00;4988648;28;20401;-79
2022/05/22 10:17:56;;;;;;;3.25;2.13;;;;;;;16.69;64.32;100917.13;4969087;28;20046;-79
2022/05/22 10:20:52;;;;;;;3.25;1.50;;;;;;;16.61;66.41;100915.59;4987577;28;20050;-80
2022/05/22 10:23:25;;;;;;;4.38;1.92;;;;;;;16.71;65.06;100918.78;4986310;28;20042;-79
2022/05/22 10:26:12;;;;;;;7.07;1.95;;;;;;;16.38;66.94;100918.34;5005339;28;20045;-79
2022/05/22 10:29:12;;;;;;;3.50;2.03;;;;;;;16.34;70.61;100919.41;4984941;28;20915;-79
2022/05/22 10:31:59;;;;;;;3.05;1.42;;;;;;;16.40;67.79;100923.63;4983142;28;20035;-78
2022/05/22 10:34:35;;;;;;;3.33;1.77;;;;;;;16.72;69.03;100925.00;4986873;28;20038;-78
2022/05/22 10:37:10;;;;;;;2.80;1.70;;;;;;;17.05;68.63;100931.56;4986903;28;20033;-78
2022/05/22 10:39:37;;;;;;;6.28;1.92;;;;;;;17.13;64.03;100920.56;5006665;28;20053;-79
2022/05/22 10:45:03;;;;;;;3.85;1.65;;;;;;;17.38;63.50;100921.22;4989805;28;20049;-78
2022/05/22 10:47:32;;;;;;;4.20;1.63;;;;;;;17.54;63.22;100920.53;4985685;28;20045;-78
2022/05/22 10:50:01;;;;;;;4.13;2.10;;;;;;;17.64;62.01;100929.88;4984325;28;20042;-77
2022/05/22 10:52:33;;;;;;;5.50;1.77;;;;;;;17.75;61.88;100913.41;5000873;28;20034;-80
2022/05/22 10:55:00;;;;;;;3.40;2.03;;;;;;;17.99;60.26;100915.81;4985089;28;20418;-78
2022/05/22 10:57:30;;;;;;;3.22;1.55;;;;;;;18.32;60.77;100909.75;4978605;28;20037;-79
2022/05/22 11:00:09;;;;;;;3.83;1.60;;;;;;;18.21;56.55;100912.94;4983852;28;20055;-78
2022/05/22 11:02:36;;;;;;;3.33;1.60;;;;;;;18.49;55.90;100915.13;4999255;28;20056;-78
2022/05/22 11:05:15;;;;;;;2.75;1.30;;;;;;;18.54;56.54;100913.13;4988637;28;20108;-78
2022/05/22 11:07:47;;;;;;;2.83;1.30;;;;;;;18.71;57.32;100911.44;4988903;28;20048;-79
2022/05/22 11:10:24;;;;;;;2.17;1.38;;;;;;;18.54;55.21;100909.56;4972611;28;20042;-78
2022/05/22 11:13:06;;;;;;;2.60;1.40;;;;;;;17.71;57.49;100908.19;4997902;28;20848;-79
2022/05/22 11:15:37;;;;;;;5.88;2.25;;;;;;;17.63;59.56;100904.97;4985821;28;20506;-79
2022/05/22 11:18:25;;;;;;;2.20;1.20;;;;;;;17.64;62.91;100912.03;4978239;28;20042;-79
2022/05/22 11:21:03;;;;;;;2.33;1.60;;;;;;;17.64;60.67;100905.81;4989080;28;20038;-79
2022/05/22 11:23:42;;;;;;;1.85;1.27;;;;;;;17.53;62.67;100916.13;4971240;28;20411;-78
2022/05/22 11:26:19;;;;;;;3.10;1.67;;;;;;;17.40;61.45;100914.03;5006863;28;20034;-79
2022/05/22 11:29:22;;;;;;;4.43;1.50;;;;;;;17.50;62.16;100902.94;4990947;28;20049;-79
2022/05/22 11:32:18;;;;;;;3.13;1.70;;;;;;;17.51;62.46;100902.00;4966309;28;20053;-79
2022/05/22 11:35:07;;;;;;;3.55;1.60;;;;;;;17.24;62.83;100896.97;4989425;28;20517;-78
2022/05/22 11:37:59;;;;;;;3.95;1.58;;;;;;;17.46;62.36;100894.19;4987438;28;20503;-79
2022/05/22 11:41:16;;;;;;;4.20;1.25;;;;;;;18.48;57.93;100889.34;4988447;28;20060;-78
2022/05/22 11:44:20;;;;;;;1.63;1.52;;;;;;;18.76;58.90;100890.69;4966572;28;20057;-78
2022/05/22 11:47:03;;;;;;;2.17;1.35;;;;;;;18.63;57.75;100892.19;4996848;28;20045;-77
2022/05/22 11:49:44;;;;;;;3.53;2.00;;;;;;;18.52;57.76;100882.91;5003800;28;20049;-77
2022/05/22 11:55:41;;;;;;;2.17;1.40;;;;;;;18.36;59.54;100881.94;4984260;28;20042;-77
2022/05/22 11:58:35;;;;;;;3.08;1.73;;;;;;;18.21;59.05;100883.53;4997759;28;20035;-77
2022/05/22 12:01:05;;;;;;;;;;;;;;;18.60;58.09;100879.84;4986068;28;20046;-79
2022/05/22 12:03:46;;;;;;;3.65;1.48;;;;;;;18.95;55.20;100875.41;4989465;28;20371;-77
2022/05/22 12:06:53;;;;;;;2.83;1.50;;;;;;;19.25;56.92;100872.91;4953058;28;20050;-78